Pagina principale
METAR-TAF:

METAR-TAF

Aeroporti :

Reims, Francia

latitudine: 49-12-31N, longitudine: 004-09-24E, altezza: 95 m

Osservazione

Il bollettino è stato emesso 31 minuti fa, alle 18:30 UTC
Vento 22 kt da sud/sud-ovest con raffiche fino a 34 kt
Temperature 17°C
Umidità 52%
Pressione 1007 hPa
Visibilità 10 km o più
Nuvoloso ad un'altezza di 4600 ft
Nuvoloso ad un'altezza di 5600 ft

METAR: LFQA 161830Z AUTO 21022G34KT 9999 BKN046 BKN056 17/07 Q1007

Ora: 20:01 (19:01 UTC)


TAF: mancante

Osservazioni e previsioni meteorologiche di più di 4000 aeroporti (messaggi METAR e TAF).

Le stazioni disponibili sono rappresentate dai dischi gialli e rossi sulla carta.

Puntare il mouse per vedere il nome della stazione.

Clicca sopra per visualizzare le osservazioni e previsioni meteorologiche.

Per cambiare la mappa : fare clic sui pulsanti verdi con una croce nera per ingrandire, il pulsante verde con un trattino per diminuire, o sulla freccia verde per le mappe adiacenti.


METAR-TAF: